sensor_id;sensor_type;location;lat;lon;timestamp;temperature;humidity
25280;DHT22;13225;47.804;12.116;2023-03-16T00:00:34;2.00;99.90
25280;DHT22;13225;47.804;12.116;2023-03-16T00:03:00;2.00;99.90
25280;DHT22;13225;47.804;12.116;2023-03-16T00:05:25;2.10;99.90
25280;DHT22;13225;47.804;12.116;2023-03-16T00:07:51;2.10;99.90
25280;DHT22;13225;47.804;12.116;2023-03-16T00:10:17;2.10;99.90
25280;DHT22;13225;47.804;12.116;2023-03-16T00:12:42;2.00;99.90
25280;DHT22;13225;47.804;12.116;2023-03-16T00:15:10;2.00;99.90
25280;DHT22;13225;47.804;12.116;2023-03-16T00:17:36;2.10;99.90
25280;DHT22;13225;47.804;12.116;2023-03-16T00:20:02;2.10;99.90
25280;DHT22;13225;47.804;12.116;2023-03-16T00:22:30;2.10;99.90
25280;DHT22;13225;47.804;12.116;2023-03-16T00:24:56;2.10;99.90
25280;DHT22;13225;47.804;12.116;2023-03-16T00:27:23;2.10;99.90
25280;DHT22;13225;47.804;12.116;2023-03-16T00:29:50;2.10;99.90
25280;DHT22;13225;47.804;12.116;2023-03-16T00:32:30;2.20;99.90
25280;DHT22;13225;47.804;12.116;2023-03-16T00:34:57;2.20;99.90
25280;DHT22;13225;47.804;12.116;2023-03-16T00:37:24;2.10;99.90
25280;DHT22;13225;47.804;12.116;2023-03-16T00:39:50;2.10;99.90
25280;DHT22;13225;47.804;12.116;2023-03-16T00:42:17;2.20;99.90
25280;DHT22;13225;47.804;12.116;2023-03-16T00:44:43;2.20;99.90
25280;DHT22;13225;47.804;12.116;2023-03-16T00:47:10;2.20;99.90
25280;DHT22;13225;47.804;12.116;2023-03-16T00:49:41;2.30;99.90
25280;DHT22;13225;47.804;12.116;2023-03-16T00:52:07;2.30;99.90
25280;DHT22;13225;47.804;12.116;2023-03-16T00:54:33;2.30;99.90
25280;DHT22;13225;47.804;12.116;2023-03-16T00:57:00;2.30;99.90
25280;DHT22;13225;47.804;12.116;2023-03-16T00:59:26;2.30;99.90
25280;DHT22;13225;47.804;12.116;2023-03-16T01:01:52;2.30;99.90
25280;DHT22;13225;47.804;12.116;2023-03-16T01:04:18;2.30;99.90
25280;DHT22;13225;47.804;12.116;2023-03-16T01:06:45;2.30;99.90
25280;DHT22;13225;47.804;12.116;2023-03-16T01:09:11;2.40;99.90
25280;DHT22;13225;47.804;12.116;2023-03-16T01:11:39;2.40;99.90
25280;DHT22;13225;47.804;12.116;2023-03-16T01:14:08;2.30;99.90
25280;DHT22;13225;47.804;12.116;2023-03-16T01:16:33;2.30;99.90
25280;DHT22;13225;47.804;12.116;2023-03-16T01:18:59;2.30;99.90
25280;DHT22;13225;47.804;12.116;2023-03-16T01:21:25;2.40;99.90
25280;DHT22;13225;47.804;12.116;2023-03-16T01:23:51;2.40;99.90
25280;DHT22;13225;47.804;12.116;2023-03-16T01:26:18;2.30;99.90
25280;DHT22;13225;47.804;12.116;2023-03-16T01:28:45;2.40;99.90
25280;DHT22;13225;47.804;12.116;2023-03-16T01:31:12;2.30;99.90
25280;DHT22;13225;47.804;12.116;2023-03-16T01:33:39;2.30;99.90
25280;DHT22;13225;47.804;12.116;2023-03-16T01:36:08;2.30;99.90
25280;DHT22;13225;47.804;12.116;2023-03-16T01:38:34;2.30;99.90
25280;DHT22;13225;47.804;12.116;2023-03-16T01:41:00;2.20;99.90
25280;DHT22;13225;47.804;12.116;2023-03-16T01:43:27;2.30;99.90
25280;DHT22;13225;47.804;12.116;2023-03-16T01:51:42;2.20;99.90
25280;DHT22;13225;47.804;12.116;2023-03-16T01:54:54;2.20;99.90
25280;DHT22;13225;47.804;12.116;2023-03-16T01:57:22;2.10;99.90
25280;DHT22;13225;47.804;12.116;2023-03-16T02:00:08;2.00;99.90
25280;DHT22;13225;47.804;12.116;2023-03-16T02:02:38;2.00;99.90
25280;DHT22;13225;47.804;12.116;2023-03-16T02:05:22;1.90;99.90
25280;DHT22;13225;47.804;12.116;2023-03-16T02:07:50;1.90;99.90
25280;DHT22;13225;47.804;12.116;2023-03-16T02:10:24;1.90;99.90
25280;DHT22;13225;47.804;12.116;2023-03-16T02:12:52;2.00;99.90
25280;DHT22;13225;47.804;12.116;2023-03-16T02:15:18;2.00;99.90
25280;DHT22;13225;47.804;12.116;2023-03-16T02:17:45;1.90;99.90
25280;DHT22;13225;47.804;12.116;2023-03-16T02:23:09;1.80;99.90
25280;DHT22;13225;47.804;12.116;2023-03-16T02:26:00;1.80;99.90
25280;DHT22;13225;47.804;12.116;2023-03-16T02:31:16;1.70;99.90
25280;DHT22;13225;47.804;12.116;2023-03-16T02:33:44;1.70;99.90
25280;DHT22;13225;47.804;12.116;2023-03-16T02:36:13;1.60;99.90
25280;DHT22;13225;47.804;12.116;2023-03-16T02:38:39;1.60;99.90
25280;DHT22;13225;47.804;12.116;2023-03-16T02:41:19;1.60;99.90
25280;DHT22;13225;47.804;12.116;2023-03-16T02:44:02;1.60;99.90
25280;DHT22;13225;47.804;12.116;2023-03-16T02:46:29;1.60;99.90
25280;DHT22;13225;47.804;12.116;2023-03-16T02:49:35;1.50;99.90
25280;DHT22;13225;47.804;12.116;2023-03-16T02:52:03;1.50;99.90
25280;DHT22;13225;47.804;12.116;2023-03-16T02:54:28;1.50;99.90
25280;DHT22;13225;47.804;12.116;2023-03-16T02:56:54;1.50;99.90
25280;DHT22;13225;47.804;12.116;2023-03-16T02:59:20;1.50;99.90
25280;DHT22;13225;47.804;12.116;2023-03-16T03:01:45;1.40;99.90
25280;DHT22;13225;47.804;12.116;2023-03-16T03:04:11;1.50;99.90
25280;DHT22;13225;47.804;12.116;2023-03-16T03:06:38;1.50;99.90
25280;DHT22;13225;47.804;12.116;2023-03-16T03:09:04;1.50;99.90
25280;DHT22;13225;47.804;12.116;2023-03-16T03:11:30;1.40;99.90
25280;DHT22;13225;47.804;12.116;2023-03-16T03:13:56;1.20;99.90
25280;DHT22;13225;47.804;12.116;2023-03-16T03:16:22;1.10;99.90
25280;DHT22;13225;47.804;12.116;2023-03-16T03:18:48;1.00;99.90
25280;DHT22;13225;47.804;12.116;2023-03-16T03:21:13;1.20;99.90
25280;DHT22;13225;47.804;12.116;2023-03-16T03:23:39;1.10;99.90
25280;DHT22;13225;47.804;12.116;2023-03-16T03:26:05;1.00;99.90
25280;DHT22;13225;47.804;12.116;2023-03-16T03:28:31;0.80;99.90
25280;DHT22;13225;47.804;12.116;2023-03-16T03:30:58;0.80;99.90
25280;DHT22;13225;47.804;12.116;2023-03-16T03:33:24;0.90;99.90
25280;DHT22;13225;47.804;12.116;2023-03-16T03:35:55;0.90;99.90
25280;DHT22;13225;47.804;12.116;2023-03-16T03:38:21;0.80;99.90
25280;DHT22;13225;47.804;12.116;2023-03-16T03:40:51;0.70;99.90
25280;DHT22;13225;47.804;12.116;2023-03-16T03:43:17;0.50;99.90
25280;DHT22;13225;47.804;12.116;2023-03-16T03:45:43;0.50;99.90
25280;DHT22;13225;47.804;12.116;2023-03-16T03:48:08;0.60;99.90
25280;DHT22;13225;47.804;12.116;2023-03-16T03:50:34;0.50;99.90
25280;DHT22;13225;47.804;12.116;2023-03-16T03:52:59;0.40;99.90
25280;DHT22;13225;47.804;12.116;2023-03-16T03:55:25;0.40;99.90
25280;DHT22;13225;47.804;12.116;2023-03-16T03:57:51;0.40;99.90
25280;DHT22;13225;47.804;12.116;2023-03-16T04:00:16;0.40;99.90
25280;DHT22;13225;47.804;12.116;2023-03-16T04:02:45;0.50;99.90
25280;DHT22;13225;47.804;12.116;2023-03-16T04:05:11;0.40;99.90
25280;DHT22;13225;47.804;12.116;2023-03-16T04:07:36;0.30;99.90
25280;DHT22;13225;47.804;12.116;2023-03-16T04:10:03;0.30;99.90
25280;DHT22;13225;47.804;12.116;2023-03-16T04:12:29;0.10;99.90
25280;DHT22;13225;47.804;12.116;2023-03-16T04:14:55;0.10;99.90
25280;DHT22;13225;47.804;12.116;2023-03-16T04:17:20;0.00;99.90
25280;DHT22;13225;47.804;12.116;2023-03-16T04:19:46;0.10;99.90
25280;DHT22;13225;47.804;12.116;2023-03-16T04:22:12;-0.10;99.90
25280;DHT22;13225;47.804;12.116;2023-03-16T04:24:38;-0.10;99.90
25280;DHT22;13225;47.804;12.116;2023-03-16T04:27:04;-0.10;99.90
25280;DHT22;13225;47.804;12.116;2023-03-16T04:29:30;-0.20;99.90
25280;DHT22;13225;47.804;12.116;2023-03-16T04:31:56;-0.20;99.90
25280;DHT22;13225;47.804;12.116;2023-03-16T04:34:22;-0.30;99.90
25280;DHT22;13225;47.804;12.116;2023-03-16T04:36:50;-0.20;99.90
25280;DHT22;13225;47.804;12.116;2023-03-16T04:39:17;0.00;99.90
25280;DHT22;13225;47.804;12.116;2023-03-16T04:41:43;0.10;99.90
25280;DHT22;13225;47.804;12.116;2023-03-16T04:44:08;0.00;99.90
25280;DHT22;13225;47.804;12.116;2023-03-16T04:46:34;0.00;99.90
25280;DHT22;13225;47.804;12.116;2023-03-16T04:49:00;0.00;99.90
25280;DHT22;13225;47.804;12.116;2023-03-16T04:51:26;0.10;99.90
25280;DHT22;13225;47.804;12.116;2023-03-16T04:53:52;0.10;99.90
25280;DHT22;13225;47.804;12.116;2023-03-16T04:56:17;0.10;99.90
25280;DHT22;13225;47.804;12.116;2023-03-16T04:58:48;0.10;99.90
25280;DHT22;13225;47.804;12.116;2023-03-16T05:01:14;0.20;99.90
25280;DHT22;13225;47.804;12.116;2023-03-16T05:03:40;0.30;99.90
25280;DHT22;13225;47.804;12.116;2023-03-16T05:06:06;0.30;99.90
25280;DHT22;13225;47.804;12.116;2023-03-16T05:08:31;0.30;99.90
25280;DHT22;13225;47.804;12.116;2023-03-16T05:10:57;0.10;99.90
25280;DHT22;13225;47.804;12.116;2023-03-16T05:13:23;-0.20;99.90
25280;DHT22;13225;47.804;12.116;2023-03-16T05:15:49;-0.10;99.90
25280;DHT22;13225;47.804;12.116;2023-03-16T05:18:18;-0.20;99.90
25280;DHT22;13225;47.804;12.116;2023-03-16T05:20:44;-0.20;99.90
25280;DHT22;13225;47.804;12.116;2023-03-16T05:23:10;-0.20;99.90
25280;DHT22;13225;47.804;12.116;2023-03-16T05:25:36;-0.30;99.90
25280;DHT22;13225;47.804;12.116;2023-03-16T05:28:02;-0.10;99.90
25280;DHT22;13225;47.804;12.116;2023-03-16T05:30:28;0.00;99.90
25280;DHT22;13225;47.804;12.116;2023-03-16T05:32:53;-0.10;99.90
25280;DHT22;13225;47.804;12.116;2023-03-16T05:35:22;0.00;99.90
25280;DHT22;13225;47.804;12.116;2023-03-16T05:37:47;0.00;99.90
25280;DHT22;13225;47.804;12.116;2023-03-16T05:40:14;0.10;99.90
25280;DHT22;13225;47.804;12.116;2023-03-16T05:42:44;0.10;99.90
25280;DHT22;13225;47.804;12.116;2023-03-16T05:45:11;0.20;99.90
25280;DHT22;13225;47.804;12.116;2023-03-16T05:47:37;0.30;99.90
25280;DHT22;13225;47.804;12.116;2023-03-16T05:50:04;0.40;99.90
25280;DHT22;13225;47.804;12.116;2023-03-16T05:52:30;0.50;99.90
25280;DHT22;13225;47.804;12.116;2023-03-16T05:54:57;0.50;99.90
25280;DHT22;13225;47.804;12.116;2023-03-16T05:57:22;0.50;99.90
25280;DHT22;13225;47.804;12.116;2023-03-16T05:59:48;0.50;99.90
25280;DHT22;13225;47.804;12.116;2023-03-16T06:02:14;0.50;99.90
25280;DHT22;13225;47.804;12.116;2023-03-16T06:04:40;0.60;99.90
25280;DHT22;13225;47.804;12.116;2023-03-16T06:07:06;0.50;99.90
25280;DHT22;13225;47.804;12.116;2023-03-16T06:09:31;0.50;99.90
25280;DHT22;13225;47.804;12.116;2023-03-16T06:11:57;0.60;99.90
25280;DHT22;13225;47.804;12.116;2023-03-16T06:14:22;0.60;99.90
25280;DHT22;13225;47.804;12.116;2023-03-16T06:16:49;0.60;99.90
25280;DHT22;13225;47.804;12.116;2023-03-16T06:19:15;0.40;99.90
25280;DHT22;13225;47.804;12.116;2023-03-16T06:21:41;0.50;99.90
25280;DHT22;13225;47.804;12.116;2023-03-16T06:24:07;0.50;99.90
25280;DHT22;13225;47.804;12.116;2023-03-16T06:26:34;0.40;99.90
25280;DHT22;13225;47.804;12.116;2023-03-16T06:29:00;0.40;99.90
25280;DHT22;13225;47.804;12.116;2023-03-16T06:31:25;0.10;99.90
25280;DHT22;13225;47.804;12.116;2023-03-16T06:33:51;0.20;99.90
25280;DHT22;13225;47.804;12.116;2023-03-16T06:36:17;0.30;99.90
25280;DHT22;13225;47.804;12.116;2023-03-16T06:38:42;0.40;99.90
25280;DHT22;13225;47.804;12.116;2023-03-16T06:41:08;0.60;99.90
25280;DHT22;13225;47.804;12.116;2023-03-16T06:43:34;0.40;99.90
25280;DHT22;13225;47.804;12.116;2023-03-16T06:45:59;0.30;99.90
25280;DHT22;13225;47.804;12.116;2023-03-16T06:48:25;0.50;99.90
25280;DHT22;13225;47.804;12.116;2023-03-16T06:50:51;0.50;99.90
25280;DHT22;13225;47.804;12.116;2023-03-16T06:53:17;0.50;99.90
25280;DHT22;13225;47.804;12.116;2023-03-16T06:55:42;0.60;99.90
25280;DHT22;13225;47.804;12.116;2023-03-16T06:58:08;0.50;99.90
25280;DHT22;13225;47.804;12.116;2023-03-16T07:00:34;0.60;99.90
25280;DHT22;13225;47.804;12.116;2023-03-16T07:03:00;0.70;99.90
25280;DHT22;13225;47.804;12.116;2023-03-16T07:05:26;0.80;99.90
25280;DHT22;13225;47.804;12.116;2023-03-16T07:07:52;0.90;99.90
25280;DHT22;13225;47.804;12.116;2023-03-16T07:10:19;1.00;99.90
25280;DHT22;13225;47.804;12.116;2023-03-16T07:12:44;1.00;99.90
25280;DHT22;13225;47.804;12.116;2023-03-16T07:15:11;1.10;99.90
25280;DHT22;13225;47.804;12.116;2023-03-16T07:17:37;1.20;99.90
25280;DHT22;13225;47.804;12.116;2023-03-16T07:20:04;1.30;99.90
25280;DHT22;13225;47.804;12.116;2023-03-16T07:22:31;1.40;99.90
25280;DHT22;13225;47.804;12.116;2023-03-16T07:24:57;1.50;99.90
25280;DHT22;13225;47.804;12.116;2023-03-16T07:27:23;1.70;99.90
25280;DHT22;13225;47.804;12.116;2023-03-16T07:29:50;1.80;99.90
25280;DHT22;13225;47.804;12.116;2023-03-16T07:32:17;1.90;99.90
25280;DHT22;13225;47.804;12.116;2023-03-16T07:34:42;2.00;99.90
25280;DHT22;13225;47.804;12.116;2023-03-16T07:37:08;1.90;99.90
25280;DHT22;13225;47.804;12.116;2023-03-16T07:39:34;2.00;99.90
25280;DHT22;13225;47.804;12.116;2023-03-16T07:42:00;2.20;99.90
25280;DHT22;13225;47.804;12.116;2023-03-16T07:44:26;2.30;99.90
25280;DHT22;13225;47.804;12.116;2023-03-16T07:46:52;2.40;99.90
25280;DHT22;13225;47.804;12.116;2023-03-16T07:49:18;2.50;99.90
25280;DHT22;13225;47.804;12.116;2023-03-16T07:51:43;2.40;99.90
25280;DHT22;13225;47.804;12.116;2023-03-16T07:54:09;2.40;99.90
25280;DHT22;13225;47.804;12.116;2023-03-16T07:56:35;2.50;99.90
25280;DHT22;13225;47.804;12.116;2023-03-16T07:59:02;2.60;99.90
25280;DHT22;13225;47.804;12.116;2023-03-16T08:01:27;2.60;99.90
25280;DHT22;13225;47.804;12.116;2023-03-16T08:03:53;2.70;99.90
25280;DHT22;13225;47.804;12.116;2023-03-16T08:06:19;2.70;99.90
25280;DHT22;13225;47.804;12.116;2023-03-16T08:08:46;2.90;99.90
25280;DHT22;13225;47.804;12.116;2023-03-16T08:11:11;3.10;99.90
25280;DHT22;13225;47.804;12.116;2023-03-16T08:13:37;3.30;99.90
25280;DHT22;13225;47.804;12.116;2023-03-16T08:16:03;3.30;99.90
25280;DHT22;13225;47.804;12.116;2023-03-16T08:18:30;3.40;99.90
25280;DHT22;13225;47.804;12.116;2023-03-16T08:20:56;3.50;99.90
25280;DHT22;13225;47.804;12.116;2023-03-16T08:23:23;3.50;99.90
25280;DHT22;13225;47.804;12.116;2023-03-16T08:25:56;3.70;99.90
25280;DHT22;13225;47.804;12.116;2023-03-16T08:28:22;3.80;99.90
25280;DHT22;13225;47.804;12.116;2023-03-16T08:30:51;3.90;99.90
25280;DHT22;13225;47.804;12.116;2023-03-16T08:33:18;3.90;99.90
25280;DHT22;13225;47.804;12.116;2023-03-16T08:35:45;3.80;99.90
25280;DHT22;13225;47.804;12.116;2023-03-16T08:38:12;4.10;99.90
25280;DHT22;13225;47.804;12.116;2023-03-16T08:40:39;4.30;99.90
25280;DHT22;13225;47.804;12.116;2023-03-16T08:45:33;4.50;99.90
25280;DHT22;13225;47.804;12.116;2023-03-16T08:47:59;4.70;99.90
25280;DHT22;13225;47.804;12.116;2023-03-16T08:50:25;4.90;99.90
25280;DHT22;13225;47.804;12.116;2023-03-16T08:52:51;4.80;99.90
25280;DHT22;13225;47.804;12.116;2023-03-16T08:55:18;4.60;99.90
25280;DHT22;13225;47.804;12.116;2023-03-16T08:57:43;4.50;99.90
25280;DHT22;13225;47.804;12.116;2023-03-16T09:00:11;4.50;99.90
25280;DHT22;13225;47.804;12.116;2023-03-16T09:02:39;4.30;99.90
25280;DHT22;13225;47.804;12.116;2023-03-16T09:05:11;4.20;99.90
25280;DHT22;13225;47.804;12.116;2023-03-16T09:07:37;4.10;99.90
25280;DHT22;13225;47.804;12.116;2023-03-16T09:10:04;4.00;99.90
25280;DHT22;13225;47.804;12.116;2023-03-16T09:12:35;4.00;99.90
25280;DHT22;13225;47.804;12.116;2023-03-16T09:15:01;4.10;99.90
25280;DHT22;13225;47.804;12.116;2023-03-16T09:17:27;4.10;99.90
25280;DHT22;13225;47.804;12.116;2023-03-16T09:19:53;4.30;99.90
25280;DHT22;13225;47.804;12.116;2023-03-16T09:22:19;4.50;99.90
25280;DHT22;13225;47.804;12.116;2023-03-16T09:24:45;4.70;99.90
25280;DHT22;13225;47.804;12.116;2023-03-16T09:27:11;4.90;99.90
25280;DHT22;13225;47.804;12.116;2023-03-16T09:29:36;5.20;99.90
25280;DHT22;13225;47.804;12.116;2023-03-16T09:32:02;5.10;99.90
25280;DHT22;13225;47.804;12.116;2023-03-16T09:34:28;4.90;99.90
25280;DHT22;13225;47.804;12.116;2023-03-16T09:36:54;4.90;99.90
25280;DHT22;13225;47.804;12.116;2023-03-16T09:39:19;5.10;99.90
25280;DHT22;13225;47.804;12.116;2023-03-16T09:46:58;5.70;99.90
25280;DHT22;13225;47.804;12.116;2023-03-16T09:49:29;5.70;99.90
25280;DHT22;13225;47.804;12.116;2023-03-16T09:52:19;5.90;99.90
25280;DHT22;13225;47.804;12.116;2023-03-16T09:55:35;6.00;99.90
25280;DHT22;13225;47.804;12.116;2023-03-16T09:57:38;6.30;99.90
25280;DHT22;13225;47.804;12.116;2023-03-16T10:00:26;6.40;99.90
25280;DHT22;13225;47.804;12.116;2023-03-16T10:05:30;6.40;99.90
25280;DHT22;13225;47.804;12.116;2023-03-16T10:13:58;6.40;99.90
25280;DHT22;13225;47.804;12.116;2023-03-16T10:19:16;5.90;99.90
25280;DHT22;13225;47.804;12.116;2023-03-16T10:21:44;5.90;99.90
25280;DHT22;13225;47.804;12.116;2023-03-16T10:27:02;6.30;99.90
25280;DHT22;13225;47.804;12.116;2023-03-16T10:29:34;6.40;99.90
25280;DHT22;13225;47.804;12.116;2023-03-16T10:32:15;6.50;99.90
25280;DHT22;13225;47.804;12.116;2023-03-16T10:34:54;6.70;99.90
25280;DHT22;13225;47.804;12.116;2023-03-16T10:37:23;6.80;99.90
25280;DHT22;13225;47.804;12.116;2023-03-16T10:39:50;6.80;99.90
25280;DHT22;13225;47.804;12.116;2023-03-16T10:42:18;6.80;99.90
25280;DHT22;13225;47.804;12.116;2023-03-16T10:44:45;6.90;99.90
25280;DHT22;13225;47.804;12.116;2023-03-16T10:47:27;6.90;99.90
25280;DHT22;13225;47.804;12.116;2023-03-16T10:49:53;6.80;99.90
25280;DHT22;13225;47.804;12.116;2023-03-16T10:52:39;6.70;99.90
25280;DHT22;13225;47.804;12.116;2023-03-16T10:55:21;7.00;99.90
25280;DHT22;13225;47.804;12.116;2023-03-16T10:57:52;7.30;99.90
25280;DHT22;13225;47.804;12.116;2023-03-16T11:00:25;7.40;99.90
25280;DHT22;13225;47.804;12.116;2023-03-16T11:02:52;7.70;99.90
25280;DHT22;13225;47.804;12.116;2023-03-16T11:07:50;7.90;99.90
25280;DHT22;13225;47.804;12.116;2023-03-16T11:12:50;8.00;99.90
25280;DHT22;13225;47.804;12.116;2023-03-16T11:15:15;8.00;99.90
25280;DHT22;13225;47.804;12.116;2023-03-16T11:17:44;7.90;99.90
25280;DHT22;13225;47.804;12.116;2023-03-16T11:20:21;8.20;99.90
25280;DHT22;13225;47.804;12.116;2023-03-16T11:22:48;8.20;99.90
25280;DHT22;13225;47.804;12.116;2023-03-16T11:25:20;8.40;99.90
25280;DHT22;13225;47.804;12.116;2023-03-16T11:30:45;8.60;99.90
25280;DHT22;13225;47.804;12.116;2023-03-16T11:33:13;8.80;99.90
25280;DHT22;13225;47.804;12.116;2023-03-16T11:35:58;9.10;99.90
25280;DHT22;13225;47.804;12.116;2023-03-16T11:38:59;9.20;99.90
25280;DHT22;13225;47.804;12.116;2023-03-16T11:41:35;9.20;99.90
25280;DHT22;13225;47.804;12.116;2023-03-16T11:44:34;9.50;99.90
25280;DHT22;13225;47.804;12.116;2023-03-16T11:52:42;9.10;99.90
25280;DHT22;13225;47.804;12.116;2023-03-16T11:56:02;9.50;99.90
25280;DHT22;13225;47.804;12.116;2023-03-16T12:01:25;9.70;99.90
25280;DHT22;13225;47.804;12.116;2023-03-16T12:07:00;9.60;99.90
25280;DHT22;13225;47.804;12.116;2023-03-16T12:15:14;10.00;99.90
25280;DHT22;13225;47.804;12.116;2023-03-16T12:17:42;10.60;99.90
25280;DHT22;13225;47.804;12.116;2023-03-16T12:20:25;10.90;99.90
25280;DHT22;13225;47.804;12.116;2023-03-16T12:23:01;11.30;99.90
25280;DHT22;13225;47.804;12.116;2023-03-16T12:25:31;11.90;99.90
25280;DHT22;13225;47.804;12.116;2023-03-16T12:28:02;12.30;99.90
25280;DHT22;13225;47.804;12.116;2023-03-16T12:33:57;12.80;99.90
25280;DHT22;13225;47.804;12.116;2023-03-16T12:42:41;13.70;99.90
25280;DHT22;13225;47.804;12.116;2023-03-16T12:48:09;13.90;99.90
25280;DHT22;13225;47.804;12.116;2023-03-16T12:50:55;14.20;99.90
25280;DHT22;13225;47.804;12.116;2023-03-16T12:56:12;13.90;99.90
25280;DHT22;13225;47.804;12.116;2023-03-16T12:58:48;13.90;99.90
25280;DHT22;13225;47.804;12.116;2023-03-16T13:01:16;14.00;99.90
25280;DHT22;13225;47.804;12.116;2023-03-16T13:03:43;14.00;99.90
25280;DHT22;13225;47.804;12.116;2023-03-16T13:06:22;13.60;99.90
25280;DHT22;13225;47.804;12.116;2023-03-16T13:08:55;13.70;99.90
25280;DHT22;13225;47.804;12.116;2023-03-16T13:11:24;13.70;99.90
25280;DHT22;13225;47.804;12.116;2023-03-16T13:16:31;13.60;99.90
25280;DHT22;13225;47.804;12.116;2023-03-16T13:18:57;13.70;99.90
25280;DHT22;13225;47.804;12.116;2023-03-16T13:21:38;13.80;99.90
25280;DHT22;13225;47.804;12.116;2023-03-16T13:26:48;13.40;99.90
25280;DHT22;13225;47.804;12.116;2023-03-16T13:29:25;13.30;99.90
25280;DHT22;13225;47.804;12.116;2023-03-16T13:31:53;13.40;99.90
25280;DHT22;13225;47.804;12.116;2023-03-16T13:34:45;13.60;99.90
25280;DHT22;13225;47.804;12.116;2023-03-16T13:37:15;13.70;99.90
25280;DHT22;13225;47.804;12.116;2023-03-16T13:40:00;13.90;99.90
25280;DHT22;13225;47.804;12.116;2023-03-16T13:42:30;14.00;99.90
25280;DHT22;13225;47.804;12.116;2023-03-16T13:45:10;13.70;99.90
25280;DHT22;13225;47.804;12.116;2023-03-16T13:47:41;13.80;99.90
25280;DHT22;13225;47.804;12.116;2023-03-16T13:50:11;14.00;99.90
25280;DHT22;13225;47.804;12.116;2023-03-16T13:52:37;13.70;99.90
25280;DHT22;13225;47.804;12.116;2023-03-16T13:55:17;13.60;99.90
25280;DHT22;13225;47.804;12.116;2023-03-16T13:57:47;13.70;99.90
25280;DHT22;13225;47.804;12.116;2023-03-16T14:00:20;13.60;99.90
25280;DHT22;13225;47.804;12.116;2023-03-16T14:02:54;13.80;99.90
25280;DHT22;13225;47.804;12.116;2023-03-16T14:05:31;14.10;99.90
25280;DHT22;13225;47.804;12.116;2023-03-16T14:07:58;13.90;99.90
25280;DHT22;13225;47.804;12.116;2023-03-16T14:10:31;14.00;99.90
25280;DHT22;13225;47.804;12.116;2023-03-16T14:13:07;14.00;99.90
25280;DHT22;13225;47.804;12.116;2023-03-16T14:15:35;14.10;99.90
25280;DHT22;13225;47.804;12.116;2023-03-16T14:18:14;14.20;99.90
25280;DHT22;13225;47.804;12.116;2023-03-16T14:20:43;14.20;99.70
25280;DHT22;13225;47.804;12.116;2023-03-16T14:23:23;14.30;99.90
25280;DHT22;13225;47.804;12.116;2023-03-16T14:25:50;14.20;99.80
25280;DHT22;13225;47.804;12.116;2023-03-16T14:28:21;13.90;99.40
25280;DHT22;13225;47.804;12.116;2023-03-16T14:31:10;13.90;99.90
25280;DHT22;13225;47.804;12.116;2023-03-16T14:33:40;14.10;99.40
25280;DHT22;13225;47.804;12.116;2023-03-16T14:36:17;14.20;98.60
25280;DHT22;13225;47.804;12.116;2023-03-16T14:38:45;14.40;98.70
25280;DHT22;13225;47.804;12.116;2023-03-16T14:41:25;14.70;99.00
25280;DHT22;13225;47.804;12.116;2023-03-16T14:43:57;14.70;98.40
25280;DHT22;13225;47.804;12.116;2023-03-16T14:46:31;14.50;98.20
25280;DHT22;13225;47.804;12.116;2023-03-16T14:49:23;14.50;97.90
25280;DHT22;13225;47.804;12.116;2023-03-16T14:51:51;14.30;98.30
25280;DHT22;13225;47.804;12.116;2023-03-16T14:54:20;14.30;97.90
25280;DHT22;13225;47.804;12.116;2023-03-16T14:56:57;14.50;97.90
25280;DHT22;13225;47.804;12.116;2023-03-16T14:59:24;14.60;97.60
25280;DHT22;13225;47.804;12.116;2023-03-16T15:01:50;14.70;97.30
25280;DHT22;13225;47.804;12.116;2023-03-16T15:04:22;14.80;96.60
25280;DHT22;13225;47.804;12.116;2023-03-16T15:06:50;14.60;97.00
25280;DHT22;13225;47.804;12.116;2023-03-16T15:09:30;14.60;97.40
25280;DHT22;13225;47.804;12.116;2023-03-16T15:11:55;14.80;96.80
25280;DHT22;13225;47.804;12.116;2023-03-16T15:14:22;14.70;96.50
25280;DHT22;13225;47.804;12.116;2023-03-16T15:17:06;14.80;96.60
25280;DHT22;13225;47.804;12.116;2023-03-16T15:19:33;14.80;96.00
25280;DHT22;13225;47.804;12.116;2023-03-16T15:22:00;14.90;95.70
25280;DHT22;13225;47.804;12.116;2023-03-16T15:24:26;14.80;95.50
25280;DHT22;13225;47.804;12.116;2023-03-16T15:26:53;14.70;96.10
25280;DHT22;13225;47.804;12.116;2023-03-16T15:29:19;14.90;95.80
25280;DHT22;13225;47.804;12.116;2023-03-16T15:31:45;14.80;95.60
25280;DHT22;13225;47.804;12.116;2023-03-16T15:34:11;14.70;95.90
25280;DHT22;13225;47.804;12.116;2023-03-16T15:36:37;14.70;96.00
25280;DHT22;13225;47.804;12.116;2023-03-16T15:39:03;14.50;95.40
25280;DHT22;13225;47.804;12.116;2023-03-16T15:41:28;14.40;95.60
25280;DHT22;13225;47.804;12.116;2023-03-16T15:43:54;14.10;95.80
25280;DHT22;13225;47.804;12.116;2023-03-16T15:46:25;14.10;96.10
25280;DHT22;13225;47.804;12.116;2023-03-16T15:48:51;14.20;95.90
25280;DHT22;13225;47.804;12.116;2023-03-16T15:51:28;14.00;95.80
25280;DHT22;13225;47.804;12.116;2023-03-16T15:53:57;13.70;96.40
25280;DHT22;13225;47.804;12.116;2023-03-16T15:56:27;13.10;96.90
25280;DHT22;13225;47.804;12.116;2023-03-16T15:58:55;12.90;97.90
25280;DHT22;13225;47.804;12.116;2023-03-16T16:01:25;12.90;97.60
25280;DHT22;13225;47.804;12.116;2023-03-16T16:03:52;12.90;98.10
25280;DHT22;13225;47.804;12.116;2023-03-16T16:06:18;12.90;97.90
25280;DHT22;13225;47.804;12.116;2023-03-16T16:08:44;12.90;97.70
25280;DHT22;13225;47.804;12.116;2023-03-16T16:11:26;12.50;97.90
25280;DHT22;13225;47.804;12.116;2023-03-16T16:13:55;12.30;98.40
25280;DHT22;13225;47.804;12.116;2023-03-16T16:16:25;12.30;98.90
25280;DHT22;13225;47.804;12.116;2023-03-16T16:18:51;12.00;99.00
25280;DHT22;13225;47.804;12.116;2023-03-16T16:21:21;11.70;99.70
25280;DHT22;13225;47.804;12.116;2023-03-16T16:23:47;11.30;99.90
25280;DHT22;13225;47.804;12.116;2023-03-16T16:26:27;10.90;99.90
25280;DHT22;13225;47.804;12.116;2023-03-16T16:28:55;10.60;99.90
25280;DHT22;13225;47.804;12.116;2023-03-16T16:31:23;10.30;99.90
25280;DHT22;13225;47.804;12.116;2023-03-16T16:33:49;10.10;99.90
25280;DHT22;13225;47.804;12.116;2023-03-16T16:36:16;9.90;99.90
25280;DHT22;13225;47.804;12.116;2023-03-16T16:38:44;9.70;99.90
25280;DHT22;13225;47.804;12.116;2023-03-16T16:41:23;9.60;99.90
25280;DHT22;13225;47.804;12.116;2023-03-16T16:43:51;9.50;99.90
25280;DHT22;13225;47.804;12.116;2023-03-16T16:46:22;9.50;99.90
25280;DHT22;13225;47.804;12.116;2023-03-16T16:49:05;9.40;99.90
25280;DHT22;13225;47.804;12.116;2023-03-16T16:51:31;9.30;99.90
25280;DHT22;13225;47.804;12.116;2023-03-16T16:53:58;9.20;99.90
25280;DHT22;13225;47.804;12.116;2023-03-16T16:56:30;9.10;99.90
25280;DHT22;13225;47.804;12.116;2023-03-16T16:58:59;9.00;99.90